Terminal Aerodrome Forecast
Issued by NWS Corpus Christi, TX

Current Version | Previous Version | Text Only | Print | Product List | Glossary Off
Versions: 1 2 3 4 5 6 7 8 9 10 11 12 13 14

000
FTUS44 KCRP 281120
TAFVCT
TAF
KVCT 281120Z 2812/2912 15003KT 4SM BR FEW018
      TEMPO 2812/2814 1SM BR BKN012
     FM281500 16013G18KT P6SM FEW040
     FM290200 14011KT P6SM FEW015
     FM290700 17003KT 4SM BR SCT015
      TEMPO 2908/2912 2SM BR BKN015=

USA.gov is the U.S. government's official web portal to all federal, state and local government web resources and services.